Time;durP1;ratioP1;P1;durP2;ratioP2;P2;SDS_P1;SDS_P2;PMS_P1;PMS_P2;Temp;Humidity;BMP_temperature;BMP_pressure;BME280_temperature;BME280_humidity;BME280_pressure;Samples;Min_cycle;Max_cycle;Signal;HPM_P1;HPM_P2
2022/10/20 00:04:15;;;;;;;5.32;4.47;;;;;;;12.31;77.62;100646.75;10399063;28;20068;-70
2022/10/20 00:09:19;;;;;;;4.85;4.35;;;;;;;12.25;77.62;100635.72;10393549;28;20498;-71
2022/10/20 00:14:20;;;;;;;10.65;4.68;;;;;;;12.18;76.35;100636.22;10390365;28;20052;-70
2022/10/20 00:19:21;;;;;;;7.82;4.55;;;;;;;12.15;76.51;100635.63;10412321;28;20378;-74
2022/10/20 00:24:23;;;;;;;5.55;4.10;;;;;;;12.05;76.35;100618.66;10404904;28;20061;-71
2022/10/20 00:29:24;;;;;;;5.57;4.45;;;;;;;11.99;76.94;100626.19;10400818;28;20046;-71
2022/10/20 00:34:25;;;;;;;5.63;4.07;;;;;;;11.95;76.23;100619.41;10401952;28;20124;-71
2022/10/20 00:39:27;;;;;;;8.48;4.40;;;;;;;11.89;76.16;100598.53;10399541;28;20064;-72
2022/10/20 00:44:55;;;;;;;5.47;4.32;;;;;;;11.86;77.94;100596.13;10395491;28;20061;-72
2022/10/20 00:50:06;;;;;;;4.88;4.38;;;;;;;11.83;75.90;100580.34;10398744;28;20514;-71
2022/10/20 00:55:09;;;;;;;6.10;4.25;;;;;;;11.78;75.50;100574.53;10395226;28;20190;-71
2022/10/20 01:00:11;;;;;;;5.43;4.10;;;;;;;11.71;76.23;100570.66;10397554;28;20048;-71
2022/10/20 01:05:13;;;;;;;5.22;3.78;;;;;;;11.73;75.61;100558.06;10397355;28;20049;-73
2022/10/20 01:10:14;;;;;;;4.40;4.00;;;;;;;11.76;76.00;100549.81;10392538;28;20049;-72
2022/10/20 01:15:27;;;;;;;9.27;4.97;;;;;;;11.67;75.91;100541.56;10392001;28;20053;-72
2022/10/20 01:21:06;;;;;;;5.50;4.07;;;;;;;11.63;75.73;100540.13;10394315;28;20878;-71
2022/10/20 01:26:38;;;;;;;6.35;3.78;;;;;;;11.61;75.49;100536.72;10396179;28;20635;-71
2022/10/20 01:31:47;;;;;;;8.70;4.60;;;;;;;11.56;75.84;100522.94;10393944;28;20087;-71
2022/10/20 01:36:56;;;;;;;6.13;4.38;;;;;;;11.61;74.79;100533.22;10404505;28;20049;-71
2022/10/20 01:42:08;;;;;;;7.75;4.53;;;;;;;11.48;74.67;100536.88;10392292;28;20061;-70
2022/10/20 01:47:12;;;;;;;4.57;4.18;;;;;;;11.53;74.38;100528.50;10393737;28;20797;-69
2022/10/20 01:52:14;;;;;;;7.82;3.95;;;;;;;11.48;74.24;100517.34;10403954;28;20045;-70
2022/10/20 01:57:17;;;;;;;7.63;4.30;;;;;;;11.58;75.92;100509.47;10403136;28;20053;-72
2022/10/20 02:02:36;;;;;;;5.18;4.68;;;;;;;11.57;73.85;100523.78;10410126;28;20667;-71
2022/10/20 02:07:41;;;;;;;5.53;3.58;;;;;;;11.59;74.25;100512.03;10408581;28;20048;-72
2022/10/20 02:12:48;;;;;;;5.22;4.05;;;;;;;11.54;73.86;100522.19;10412181;28;20037;-71
2022/10/20 02:17:56;;;;;;;6.55;4.75;;;;;;;11.57;73.68;100507.78;10401815;28;20061;-71
2022/10/20 02:22:59;;;;;;;5.32;4.53;;;;;;;11.44;73.82;100507.91;10402312;28;20050;-70
2022/10/20 02:28:03;;;;;;;5.50;4.35;;;;;;;11.49;73.82;100505.72;10398174;28;20579;-71
2022/10/20 02:33:06;;;;;;;4.43;3.90;;;;;;;11.43;74.24;100487.56;10401730;28;20056;-69
2022/10/20 02:38:07;;;;;;;7.45;4.45;;;;;;;11.41;73.98;100502.81;10402366;28;20049;-71
2022/10/20 02:43:08;;;;;;;6.00;4.25;;;;;;;11.48;73.91;100488.03;10402910;28;20539;-71
2022/10/20 02:48:09;;;;;;;5.18;4.32;;;;;;;11.47;73.57;100481.88;10411860;28;20037;-71
2022/10/20 02:53:11;;;;;;;4.95;4.45;;;;;;;11.36;73.59;100471.19;10446754;28;20057;-71
2022/10/20 02:58:12;;;;;;;4.63;4.18;;;;;;;11.34;73.63;100478.50;10449231;28;20038;-71
2022/10/20 03:03:13;;;;;;;5.07;4.25;;;;;;;11.35;74.24;100479.31;10450583;28;20055;-74
2022/10/20 03:08:15;;;;;;;5.85;4.32;;;;;;;11.35;73.35;100489.97;10418519;28;20064;-71
2022/10/20 03:13:16;;;;;;;7.32;4.53;;;;;;;11.28;74.07;100479.81;10397320;28;20057;-70
2022/10/20 03:18:17;;;;;;;5.38;4.03;;;;;;;11.33;74.36;100463.47;10403559;28;20060;-72
2022/10/20 03:23:19;;;;;;;5.43;4.95;;;;;;;11.30;74.02;100471.69;10401962;28;20480;-70
2022/10/20 03:28:20;;;;;;;6.85;4.90;;;;;;;11.17;73.81;100471.84;10399455;28;20615;-71
2022/10/20 03:33:22;;;;;;;5.63;4.60;;;;;;;11.24;73.43;100470.38;10404003;28;20052;-69
2022/10/20 03:38:23;;;;;;;6.60;4.80;;;;;;;11.19;73.78;100459.25;10401202;28;20045;-70
2022/10/20 03:43:24;;;;;;;5.32;4.90;;;;;;;11.21;73.94;100441.31;10409423;28;20057;-72
2022/10/20 03:48:26;;;;;;;6.82;5.05;;;;;;;11.20;73.50;100431.63;10400224;28;20056;-69
2022/10/20 03:53:28;;;;;;;7.30;5.20;;;;;;;11.19;74.54;100431.75;10399087;28;20061;-71
2022/10/20 03:58:29;;;;;;;7.30;4.68;;;;;;;11.18;76.35;100454.88;10399513;28;20849;-70
2022/10/20 04:03:31;;;;;;;7.45;4.93;;;;;;;11.32;73.35;100446.63;10397826;28;20060;-70
2022/10/20 04:08:32;;;;;;;8.32;5.00;;;;;;;11.24;73.68;100446.38;10397861;28;20045;-69
2022/10/20 04:13:34;;;;;;;5.60;4.95;;;;;;;11.19;75.51;100429.94;10391194;28;20049;-69
2022/10/20 04:18:35;;;;;;;6.78;5.05;;;;;;;11.18;73.50;100412.25;10438509;28;20063;-72
2022/10/20 04:23:36;;;;;;;6.95;5.00;;;;;;;11.18;73.92;100396.25;10441189;28;20083;-70
2022/10/20 04:28:38;;;;;;;10.35;5.55;;;;;;;11.22;73.44;100394.22;10443953;28;20048;-73
2022/10/20 04:33:39;;;;;;;7.20;4.95;;;;;;;11.18;73.27;100385.59;10455433;28;20064;-72
2022/10/20 04:38:40;;;;;;;6.50;4.70;;;;;;;11.19;73.48;100389.97;10440033;28;20059;-71
2022/10/20 04:43:41;;;;;;;5.70;5.20;;;;;;;11.21;73.53;100400.50;10441372;28;20048;-71
2022/10/20 04:48:43;;;;;;;6.47;5.40;;;;;;;11.24;73.35;100378.94;10445143;28;20915;-71
2022/10/20 04:53:45;;;;;;;5.85;5.22;;;;;;;11.12;73.74;100375.44;10422473;28;20053;-70
2022/10/20 04:58:51;;;;;;;6.80;5.38;;;;;;;11.16;73.64;100371.56;10439991;28;20592;-71
2022/10/20 05:03:53;;;;;;;5.82;5.32;;;;;;;11.19;74.77;100355.31;10428555;28;20045;-73
2022/10/20 05:08:58;;;;;;;6.00;5.13;;;;;;;11.20;73.24;100349.03;10427156;28;20053;-70
2022/10/20 05:13:59;;;;;;;;;;;;;;;11.10;73.39;100348.94;10410582;28;20113;-71
2022/10/20 05:19:00;;;;;;;7.53;4.93;;;;;;;11.02;74.06;100324.75;10429592;28;19928;-70
2022/10/20 05:24:03;;;;;;;6.95;6.25;;;;;;;11.08;73.88;100326.03;10402568;28;20107;-71
2022/10/20 05:29:06;;;;;;;6.25;5.35;;;;;;;11.01;74.30;100319.53;10384507;28;20057;-71
2022/10/20 05:34:10;;;;;;;7.43;6.18;;;;;;;11.04;74.95;100321.94;10390582;28;20049;-71
2022/10/20 05:39:11;;;;;;;7.97;6.82;;;;;;;11.03;74.55;100317.59;10390337;28;20471;-70
2022/10/20 05:44:12;;;;;;;7.68;6.88;;;;;;;11.06;74.91;100317.34;10398009;28;20554;-71
2022/10/20 05:49:16;;;;;;;7.18;5.93;;;;;;;11.19;75.78;100317.19;10405896;28;20122;-74
2022/10/20 05:54:17;;;;;;;10.25;7.75;;;;;;;11.26;74.55;100303.22;10408652;28;20057;-71
2022/10/20 05:59:19;;;;;;;9.57;8.57;;;;;;;11.16;75.02;100315.63;10463052;28;20040;-71
2022/10/20 06:04:22;;;;;;;10.88;8.63;;;;;;;11.21;74.74;100305.41;10447704;28;20708;-69
2022/10/20 06:09:24;;;;;;;10.67;7.77;;;;;;;11.19;75.24;100302.03;10431904;28;20059;-71
2022/10/20 06:14:25;;;;;;;10.55;9.45;;;;;;;11.23;75.21;100329.28;10477137;28;20049;-70
2022/10/20 06:19:26;;;;;;;8.10;7.40;;;;;;;11.23;75.18;100319.47;10472820;28;20219;-71
2022/10/20 06:24:28;;;;;;;8.05;7.13;;;;;;;11.35;75.63;100322.09;10452252;28;20056;-69
2022/10/20 06:29:29;;;;;;;8.07;7.28;;;;;;;11.42;74.83;100318.78;10428478;28;21655;-71
2022/10/20 06:34:30;;;;;;;8.77;7.38;;;;;;;11.53;74.80;100333.03;10427829;28;20044;-71
2022/10/20 06:39:32;;;;;;;10.60;7.20;;;;;;;11.48;74.23;100322.75;10426992;28;20048;-70
2022/10/20 06:44:33;;;;;;;11.82;9.10;;;;;;;11.50;73.52;100337.66;10400251;28;20056;-70
2022/10/20 06:49:34;;;;;;;8.75;7.57;;;;;;;11.52;74.78;100334.03;10383234;28;20257;-70
2022/10/20 06:54:36;;;;;;;9.77;7.43;;;;;;;11.48;73.80;100346.75;10384228;28;20054;-70
2022/10/20 06:59:37;;;;;;;8.90;8.02;;;;;;;11.57;73.69;100353.97;10380839;28;20050;-70
2022/10/20 07:04:38;;;;;;;9.50;7.78;;;;;;;11.62;73.88;100357.13;10383595;28;20060;-70
2022/10/20 07:09:40;;;;;;;9.32;8.35;;;;;;;11.69;74.00;100384.13;10394916;28;20045;-70
2022/10/20 07:14:41;;;;;;;10.48;8.68;;;;;;;11.73;73.56;100358.06;10391215;28;20052;-73
2022/10/20 07:19:42;;;;;;;11.90;7.63;;;;;;;11.73;73.60;100344.72;10390373;28;20613;-71
2022/10/20 07:24:44;;;;;;;8.85;7.78;;;;;;;11.84;73.86;100376.66;10387678;28;20064;-71
2022/10/20 07:29:45;;;;;;;10.13;8.38;;;;;;;11.89;72.68;100358.47;10384847;28;20055;-71
2022/10/20 07:34:46;;;;;;;8.55;7.85;;;;;;;11.91;72.73;100356.50;10387147;28;20060;-71
2022/10/20 07:39:48;;;;;;;9.52;8.35;;;;;;;12.12;71.92;100363.69;10392333;28;20060;-70
2022/10/20 07:44:49;;;;;;;10.73;8.15;;;;;;;12.34;71.74;100352.88;10394549;28;20057;-70
2022/10/20 07:49:50;;;;;;;9.90;8.85;;;;;;;12.67;71.06;100326.00;10402723;28;20053;-72
2022/10/20 07:54:51;;;;;;;8.98;8.15;;;;;;;12.81;70.03;100335.50;10395614;28;20076;-71
2022/10/20 08:00:13;;;;;;;13.77;9.20;;;;;;;12.85;69.58;100331.53;10432848;28;20424;-72
2022/10/20 08:05:15;;;;;;;10.27;8.93;;;;;;;12.83;70.42;100330.84;10439507;28;20053;-72
2022/10/20 08:10:16;;;;;;;12.80;9.85;;;;;;;12.93;69.43;100337.06;10436551;28;20055;-73
2022/10/20 08:15:17;;;;;;;13.23;9.35;;;;;;;12.99;70.22;100328.50;10430481;28;20559;-76
2022/10/20 08:20:19;;;;;;;10.32;9.32;;;;;;;12.96;70.64;100325.28;10384160;28;20292;-72
2022/10/20 08:25:25;;;;;;;11.57;10.40;;;;;;;12.99;71.08;100347.19;10386081;28;21004;-71
2022/10/20 08:30:26;;;;;;;13.00;10.48;;;;;;;13.07;71.33;100312.59;10390673;28;20049;-73
2022/10/20 08:35:28;;;;;;;13.20;10.88;;;;;;;13.09;71.43;100321.34;10395855;28;20516;-72
2022/10/20 08:40:29;;;;;;;13.73;12.25;;;;;;;13.06;72.56;100324.31;10394922;28;20056;-71
2022/10/20 08:45:32;;;;;;;15.13;12.35;;;;;;;13.22;72.34;100315.72;10388111;28;20049;-71
2022/10/20 08:50:44;;;;;;;13.13;11.60;;;;;;;13.28;72.18;100303.63;10410948;28;20183;-71
2022/10/20 08:55:45;;;;;;;13.52;12.07;;;;;;;13.53;71.42;100298.75;10448102;28;20056;-71
2022/10/20 09:00:54;;;;;;;14.63;11.98;;;;;;;13.69;70.66;100296.34;10389720;28;20471;-70
2022/10/20 09:06:06;;;;;;;14.88;12.98;;;;;;;13.75;69.92;100284.22;10386295;28;20419;-70
2022/10/20 09:11:13;;;;;;;13.73;12.32;;;;;;;13.40;71.11;100299.88;10378010;28;20526;-71
2022/10/20 09:16:14;;;;;;;15.30;13.18;;;;;;;13.61;71.21;100277.47;10383227;28;20046;-72
2022/10/20 09:21:37;;;;;;;14.55;13.00;;;;;;;13.82;70.56;100273.81;10384121;28;20110;-71
2022/10/20 09:26:47;;;;;;;16.58;12.57;;;;;;;13.91;70.33;100294.34;10386041;28;20052;-71
2022/10/20 09:32:34;;;;;;;13.90;12.50;;;;;;;13.82;70.65;100292.53;10416322;28;20061;-71
2022/10/20 09:38:28;;;;;;;13.88;12.48;;;;;;;13.91;70.49;100286.31;10399973;28;20045;-71
2022/10/20 09:43:30;;;;;;;14.77;12.68;;;;;;;14.33;68.69;100262.63;10375057;28;20048;-72
2022/10/20 09:48:35;;;;;;;17.33;12.52;;;;;;;14.66;67.97;100286.34;10379363;28;20075;-71
2022/10/20 09:53:54;;;;;;;14.82;11.98;;;;;;;14.45;67.93;100302.63;10376445;28;20049;-71
2022/10/20 09:58:57;;;;;;;13.70;12.35;;;;;;;14.12;69.64;100312.88;10372697;28;20060;-71
2022/10/20 10:04:00;;;;;;;14.32;12.82;;;;;;;13.98;70.40;100298.13;10374427;28;20858;-70
2022/10/20 10:09:24;;;;;;;13.43;12.13;;;;;;;14.06;70.03;100292.88;10374455;28;20119;-70
2022/10/20 10:14:32;;;;;;;15.50;13.85;;;;;;;14.15;70.09;100280.47;10393847;28;20484;-70
2022/10/20 10:19:33;;;;;;;14.93;12.48;;;;;;;14.12;69.96;100273.56;10408534;28;20053;-71
2022/10/20 10:24:42;;;;;;;15.48;13.70;;;;;;;14.00;70.68;100290.78;10407582;28;20045;-71
2022/10/20 10:29:43;;;;;;;14.63;12.80;;;;;;;13.77;72.08;100292.97;10428624;28;20479;-71
2022/10/20 10:35:08;;;;;;;17.58;14.13;;;;;;;13.76;72.48;100277.88;10411340;28;20044;-70
2022/10/20 10:40:23;;;;;;;16.77;12.70;;;;;;;13.84;72.40;100271.81;10424313;28;20436;-70
2022/10/20 10:45:50;;;;;;;14.07;12.52;;;;;;;13.89;72.63;100258.88;10413376;28;20044;-70
2022/10/20 10:51:09;;;;;;;15.63;13.25;;;;;;;13.84;72.75;100243.25;10442795;28;20051;-72
2022/10/20 10:56:29;;;;;;;15.35;12.23;;;;;;;13.89;73.15;100240.97;10433686;28;20044;-72
2022/10/20 11:02:14;;;;;;;16.42;12.90;;;;;;;13.78;73.27;100235.78;10395824;28;20534;-71
2022/10/20 11:07:40;;;;;;;17.02;13.38;;;;;;;13.76;73.78;100224.38;10424974;28;20051;-71
2022/10/20 11:13:19;;;;;;;17.60;14.15;;;;;;;13.96;73.34;100228.69;10425224;28;20410;-71
2022/10/20 11:18:46;;;;;;;17.08;14.65;;;;;;;14.26;72.16;100204.47;10444818;28;20044;-71
2022/10/20 11:24:18;;;;;;;15.25;12.90;;;;;;;14.71;70.63;100162.66;10439184;28;20052;-71
2022/10/20 11:29:32;;;;;;;13.88;12.43;;;;;;;15.15;68.70;100186.84;10376316;28;20578;-71
2022/10/20 11:34:45;;;;;;;13.55;12.15;;;;;;;17.03;62.06;100199.50;10378814;28;20049;-71
2022/10/20 11:39:57;;;;;;;14.45;12.05;;;;;;;16.45;62.15;100201.19;10375608;28;20352;-71
2022/10/20 11:45:00;;;;;;;15.57;12.23;;;;;;;15.77;65.21;100192.13;10377337;28;20056;-70
2022/10/20 11:50:09;;;;;;;13.65;12.10;;;;;;;15.20;67.39;100184.53;10377179;28;20057;-70
2022/10/20 11:55:19;;;;;;;14.77;12.45;;;;;;;14.94;68.75;100181.81;10379640;28;20053;-70
2022/10/20 12:00:36;;;;;;;14.38;12.95;;;;;;;14.90;69.56;100189.28;10375564;28;20045;-70
2022/10/20 12:06:06;;;;;;;12.77;11.48;;;;;;;14.84;70.24;100185.38;10381142;28;20060;-71
2022/10/20 12:11:45;;;;;;;13.60;12.18;;;;;;;14.58;70.72;100193.31;10385947;28;20049;-72
2022/10/20 12:16:58;;;;;;;14.25;12.85;;;;;;;14.51;71.35;100200.25;10414654;28;20053;-71
2022/10/20 12:22:12;;;;;;;16.40;12.17;;;;;;;14.54;71.76;100188.41;10409639;28;20099;-71
2022/10/20 12:27:21;;;;;;;12.53;10.63;;;;;;;14.47;72.46;100183.66;10417341;28;20779;-71
2022/10/20 12:32:44;;;;;;;13.80;12.25;;;;;;;14.59;72.96;100191.44;10436378;28;20052;-71
2022/10/20 12:37:57;;;;;;;14.60;11.82;;;;;;;14.54;72.60;100185.72;10419206;28;20048;-71
2022/10/20 12:42:59;;;;;;;13.52;11.60;;;;;;;14.53;73.29;100186.69;10400006;28;20049;-72
2022/10/20 12:48:02;;;;;;;13.65;11.63;;;;;;;14.42;73.38;100183.25;10411739;28;20052;-71
2022/10/20 12:53:17;;;;;;;15.90;12.30;;;;;;;14.43;73.58;100176.91;10415887;28;20060;-71
2022/10/20 12:58:18;;;;;;;13.18;11.82;;;;;;;14.49;73.77;100141.47;10437620;28;20063;-71
2022/10/20 13:03:38;;;;;;;16.80;12.73;;;;;;;14.53;74.28;100154.56;10408571;28;20146;-71
2022/10/20 13:08:40;;;;;;;15.60;12.50;;;;;;;14.57;73.80;100166.66;10441906;28;20049;-70
2022/10/20 13:13:58;;;;;;;17.25;11.65;;;;;;;14.61;74.45;100181.47;10417487;28;20584;-71
2022/10/20 13:19:12;;;;;;;14.25;12.57;;;;;;;14.60;74.04;100180.59;10381913;28;20187;-70
2022/10/20 13:24:32;;;;;;;15.02;13.50;;;;;;;14.65;74.11;100164.09;10382246;28;20049;-70
2022/10/20 13:29:41;;;;;;;;;;;;;;;14.48;74.96;100174.59;10380477;28;20060;-71
2022/10/20 13:34:50;;;;;;;;;;;;;;;14.59;75.32;100159.31;10390340;28;19920;-72
2022/10/20 13:40:16;;;;;;;14.52;12.70;;;;;;;14.67;74.80;100152.22;10401746;28;19950;-70
2022/10/20 13:45:48;;;;;;;14.45;12.68;;;;;;;14.67;75.36;100122.75;10349314;28;20052;-70
2022/10/20 13:51:02;;;;;;;15.07;13.27;;;;;;;14.62;75.82;100116.19;10395179;28;20337;-71
2022/10/20 13:56:07;;;;;;;16.93;13.90;;;;;;;14.59;76.45;100129.84;10392025;28;20068;-70
2022/10/20 14:01:11;;;;;;;15.38;13.50;;;;;;;14.55;76.65;100136.53;10406507;28;20062;-71
2022/10/20 14:06:28;;;;;;;14.88;13.32;;;;;;;14.60;77.10;100134.22;10398620;28;20079;-70
2022/10/20 14:11:30;;;;;;;15.13;13.63;;;;;;;14.57;77.42;100113.09;10384662;28;20060;-73
2022/10/20 14:16:32;;;;;;;15.77;12.88;;;;;;;14.58;77.90;100120.97;10395094;28;20060;-72
2022/10/20 14:21:43;;;;;;;14.95;13.55;;;;;;;14.60;78.16;100102.91;10403622;28;20076;-71
2022/10/20 14:26:45;;;;;;;14.25;12.80;;;;;;;14.57;78.67;100131.84;10406617;28;20045;-70
2022/10/20 14:31:47;;;;;;;14.93;13.43;;;;;;;14.54;80.00;100140.19;10384382;28;20890;-71
2022/10/20 14:36:51;;;;;;;15.32;13.80;;;;;;;14.48;80.24;100125.56;10383377;28;20061;-72
2022/10/20 14:41:56;;;;;;;15.68;14.02;;;;;;;14.53;81.89;100127.78;10384101;28;20046;-71
2022/10/20 14:47:03;;;;;;;15.70;14.10;;;;;;;14.50;82.02;100156.56;10383329;28;20148;-71
2022/10/20 14:52:20;;;;;;;16.90;14.85;;;;;;;14.34;83.32;100156.38;10393101;28;20823;-72
2022/10/20 14:57:43;;;;;;;17.63;15.82;;;;;;;14.31;84.10;100129.91;10398713;28;20071;-70
2022/10/20 15:02:44;;;;;;;15.55;13.95;;;;;;;14.27;84.93;100120.50;10379513;28;20057;-70
2022/10/20 15:07:46;;;;;;;16.58;14.88;;;;;;;14.29;85.34;100129.19;10380436;28;20057;-71
2022/10/20 15:12:50;;;;;;;15.88;14.30;;;;;;;14.29;85.61;100115.81;10383438;28;20072;-72
2022/10/20 15:18:17;;;;;;;16.10;14.10;;;;;;;14.31;86.90;100119.19;10382747;28;20060;-71
2022/10/20 15:23:24;;;;;;;16.90;15.10;;;;;;;14.28;86.73;100119.50;10379138;28;20045;-71
2022/10/20 15:28:46;;;;;;;15.32;13.75;;;;;;;14.25;88.19;100114.47;10387479;28;20049;-69
2022/10/20 15:33:47;;;;;;;16.33;14.65;;;;;;;14.26;88.08;100118.78;10380341;28;20057;-72
2022/10/20 15:38:49;;;;;;;15.63;13.52;;;;;;;14.20;88.74;100098.00;10379986;28;20064;-70
2022/10/20 15:43:51;;;;;;;15.93;14.25;;;;;;;14.23;89.33;100073.59;10379374;28;20466;-69
2022/10/20 15:48:53;;;;;;;16.67;14.95;;;;;;;14.19;89.70;100062.34;10381290;28;20059;-72
2022/10/20 15:53:55;;;;;;;16.45;14.77;;;;;;;14.24;89.89;100057.38;10384467;28;20271;-70
2022/10/20 15:58:56;;;;;;;17.38;15.63;;;;;;;14.24;90.54;100053.88;10378226;28;21271;-71
2022/10/20 16:04:01;;;;;;;16.50;14.88;;;;;;;14.24;90.92;100064.56;10379251;28;20056;-70
2022/10/20 16:09:03;;;;;;;;;;;;;;;14.26;91.39;100049.19;10380680;28;20471;-73
2022/10/20 16:14:05;;;;;;;18.58;16.63;;;;;;;14.19;91.73;100029.41;10395848;28;19951;-69
2022/10/20 16:19:06;;;;;;;16.30;14.70;;;;;;;14.17;91.40;100028.69;10380839;28;20538;-70
2022/10/20 16:24:09;;;;;;;17.23;15.52;;;;;;;14.07;91.88;100032.28;10386468;28;20106;-69
2022/10/20 16:29:11;;;;;;;16.77;15.15;;;;;;;14.08;92.09;100007.22;10395026;28;20081;-72
2022/10/20 16:34:12;;;;;;;17.15;15.45;;;;;;;14.05;92.24;100023.56;10387183;28;20056;-68
2022/10/20 16:39:16;;;;;;;18.02;16.15;;;;;;;13.98;93.04;100043.91;10398149;28;20064;-69
2022/10/20 16:44:17;;;;;;;18.47;16.63;;;;;;;14.07;93.34;100048.34;10397882;28;20061;-71
2022/10/20 16:49:18;;;;;;;17.48;15.77;;;;;;;14.07;93.16;100058.22;10382390;28;20049;-69
2022/10/20 16:54:19;;;;;;;20.73;15.77;;;;;;;14.06;93.38;100019.88;10423132;28;20148;-69
2022/10/20 16:59:21;;;;;;;16.58;14.88;;;;;;;14.00;93.64;100009.78;10425361;28;20356;-70
2022/10/20 17:04:22;;;;;;;17.85;16.30;;;;;;;13.94;94.40;99994.34;10404323;28;20057;-70
2022/10/20 17:09:24;;;;;;;17.38;15.45;;;;;;;13.91;94.75;99994.66;10419758;28;20052;-70
2022/10/20 17:14:25;;;;;;;17.25;15.60;;;;;;;13.87;95.33;100004.81;10423005;28;20059;-71
2022/10/20 17:19:26;;;;;;;17.15;15.45;;;;;;;13.92;95.30;100012.41;10423450;28;20422;-71
2022/10/20 17:24:28;;;;;;;18.05;16.35;;;;;;;13.95;95.18;100041.53;10443480;28;20052;-72
2022/10/20 17:29:29;;;;;;;16.67;14.98;;;;;;;14.02;94.72;100047.09;10433105;28;20048;-71
2022/10/20 17:34:30;;;;;;;17.17;15.00;;;;;;;14.10;94.47;100061.44;10422537;28;20052;-71
2022/10/20 17:39:32;;;;;;;18.20;16.48;;;;;;;14.06;94.91;100061.88;10421835;28;20061;-69
2022/10/20 17:44:33;;;;;;;18.10;16.17;;;;;;;14.02;95.37;100066.69;10426436;28;20052;-70
2022/10/20 17:49:34;;;;;;;18.42;16.52;;;;;;;14.02;95.83;100064.03;10419720;28;20049;-70
2022/10/20 17:54:36;;;;;;;23.92;17.05;;;;;;;14.02;95.73;100066.69;10403766;28;20779;-71
2022/10/20 17:59:37;;;;;;;18.63;16.73;;;;;;;14.05;95.84;100036.97;10406219;28;20053;-71
2022/10/20 18:04:53;;;;;;;17.67;16.05;;;;;;;14.00;96.25;99977.69;10412678;28;20056;-69
2022/10/20 18:09:54;;;;;;;17.42;15.82;;;;;;;13.95;96.72;99962.09;10416788;28;20056;-70
2022/10/20 18:14:56;;;;;;;16.55;14.85;;;;;;;13.93;96.99;99880.28;10420582;28;20443;-70
2022/10/20 18:19:58;;;;;;;16.85;15.13;;;;;;;13.89;97.92;99919.88;10420356;28;20049;-69
2022/10/20 18:25:00;;;;;;;20.73;17.42;;;;;;;13.66;99.39;100007.78;10380607;28;20053;-70
2022/10/20 18:30:01;;;;;;;17.60;15.68;;;;;;;13.84;98.53;99982.88;10377563;28;20057;-70
2022/10/20 18:35:03;;;;;;;20.58;18.75;;;;;;;13.95;97.60;100009.41;10377068;28;20064;-70
2022/10/20 18:40:05;;;;;;;21.75;19.45;;;;;;;14.01;97.19;99986.56;10381746;28;20060;-69
2022/10/20 18:45:06;;;;;;;18.80;16.85;;;;;;;14.08;97.33;100007.22;10381908;28;20059;-69
2022/10/20 18:50:08;;;;;;;18.58;16.58;;;;;;;14.09;97.13;99983.97;10381764;28;20057;-70
2022/10/20 18:55:09;;;;;;;17.58;16.05;;;;;;;14.02;97.75;100002.47;10397630;28;20476;-70
2022/10/20 19:00:11;;;;;;;18.38;16.70;;;;;;;14.15;97.06;100013.63;10383273;28;20041;-69
2022/10/20 19:05:12;;;;;;;17.90;16.13;;;;;;;14.20;96.31;100001.63;10382622;28;20049;-70
2022/10/20 19:10:14;;;;;;;17.85;15.90;;;;;;;14.23;96.78;99998.63;10385980;28;20049;-71
2022/10/20 19:15:15;;;;;;;17.73;15.93;;;;;;;14.25;96.93;99999.34;10429776;28;20067;-70
2022/10/20 19:20:17;;;;;;;19.55;15.90;;;;;;;14.20;97.43;99977.53;10405386;28;20049;-69
2022/10/20 19:25:18;;;;;;;16.70;15.30;;;;;;;14.18;97.75;99968.81;10405841;28;20076;-69
2022/10/20 19:30:20;;;;;;;17.65;15.82;;;;;;;14.20;97.73;99958.78;10387891;28;20053;-69
2022/10/20 19:35:21;;;;;;;17.67;15.77;;;;;;;14.22;97.92;99975.56;10384056;28;21589;-71
2022/10/20 19:40:22;;;;;;;17.65;14.70;;;;;;;14.23;98.07;99971.88;10383700;28;20855;-69
2022/10/20 19:45:28;;;;;;;16.45;14.80;;;;;;;14.29;97.85;99971.25;10379409;28;20420;-69
2022/10/20 19:50:33;;;;;;;16.33;14.95;;;;;;;14.30;97.94;99970.25;10394915;28;20052;-74
2022/10/20 19:55:35;;;;;;;17.30;15.52;;;;;;;14.31;97.87;99961.25;10386942;28;20609;-71
2022/10/20 20:00:42;;;;;;;17.13;15.27;;;;;;;14.31;97.70;99916.56;10385488;28;20060;-71
2022/10/20 20:05:43;;;;;;;18.02;16.35;;;;;;;14.26;98.22;99912.66;10381509;28;20056;-70
2022/10/20 20:10:54;;;;;;;18.25;16.35;;;;;;;14.24;98.35;99901.28;10387920;28;20055;-71
2022/10/20 20:15:55;;;;;;;15.57;14.07;;;;;;;14.24;98.27;99903.97;10400382;28;20080;-69
2022/10/20 20:21:01;;;;;;;16.70;15.00;;;;;;;14.19;98.85;99874.16;10379757;28;20060;-69
2022/10/20 20:26:03;;;;;;;17.55;15.65;;;;;;;14.15;99.00;99905.72;10378887;28;20057;-71
2022/10/20 20:31:07;;;;;;;17.05;15.23;;;;;;;14.09;99.54;99920.56;10383091;28;20304;-71
2022/10/20 20:36:08;;;;;;;17.87;16.17;;;;;;;13.94;100.00;99941.66;10399336;28;20060;-71
2022/10/20 20:41:13;;;;;;;17.23;15.57;;;;;;;13.97;100.00;99929.81;10417321;28;20049;-72
2022/10/20 20:46:17;;;;;;;17.83;16.02;;;;;;;14.02;100.00;99924.88;10414591;28;20041;-71
2022/10/20 20:51:19;;;;;;;17.48;15.65;;;;;;;14.02;100.00;99922.19;10390288;28;20049;-70
2022/10/20 20:56:20;;;;;;;17.27;15.65;;;;;;;14.08;100.00;99932.28;10399386;28;20057;-69
2022/10/20 21:01:29;;;;;;;17.48;15.65;;;;;;;14.09;100.00;99923.22;10394580;28;20107;-68
2022/10/20 21:06:31;;;;;;;17.70;15.93;;;;;;;14.10;100.00;99903.50;10394561;28;20144;-70
2022/10/20 21:11:52;;;;;;;16.70;14.98;;;;;;;14.12;100.00;99914.91;10434253;28;20088;-70
2022/10/20 21:16:53;;;;;;;16.08;14.45;;;;;;;14.15;100.00;99913.75;10433025;28;20048;-70
2022/10/20 21:22:00;;;;;;;14.68;13.45;;;;;;;14.20;99.64;99907.94;10431654;28;20044;-69
2022/10/20 21:27:01;;;;;;;15.73;14.23;;;;;;;14.18;99.50;99883.16;10437997;28;20042;-69
2022/10/20 21:32:02;;;;;;;15.15;13.73;;;;;;;14.19;99.84;99899.06;10424267;28;20044;-69
2022/10/20 21:37:03;;;;;;;16.38;14.70;;;;;;;14.18;100.00;99923.31;10450381;28;20057;-71
2022/10/20 21:42:05;;;;;;;15.70;13.82;;;;;;;14.24;99.72;99895.94;10451068;28;20056;-70
2022/10/20 21:47:06;;;;;;;15.35;13.75;;;;;;;14.23;99.98;99881.72;10423343;28;20052;-70
2022/10/20 21:52:07;;;;;;;14.73;13.23;;;;;;;14.25;99.31;99884.22;10415023;28;20048;-69
2022/10/20 21:57:09;;;;;;;15.48;13.93;;;;;;;14.26;99.71;99880.53;10451418;28;20059;-70
2022/10/20 22:02:12;;;;;;;16.20;14.60;;;;;;;14.28;99.18;99883.91;10444847;28;20053;-69
2022/10/20 22:07:14;;;;;;;16.17;14.15;;;;;;;14.23;99.78;99880.84;10455727;28;20056;-70
2022/10/20 22:12:15;;;;;;;15.45;13.95;;;;;;;14.24;99.96;99861.13;10454102;28;20140;-69
2022/10/20 22:17:16;;;;;;;15.50;14.10;;;;;;;14.22;100.00;99872.00;10474535;28;20059;-68
2022/10/20 22:22:18;;;;;;;15.82;14.32;;;;;;;14.21;100.00;99878.31;10453730;28;20477;-69
2022/10/20 22:27:19;;;;;;;15.65;14.02;;;;;;;14.23;100.00;99862.09;10437261;28;20048;-69
2022/10/20 22:32:40;;;;;;;15.55;14.05;;;;;;;14.29;99.99;99864.16;10437674;28;20071;-69
2022/10/20 22:37:41;;;;;;;16.17;14.48;;;;;;;14.31;99.81;99878.25;10423615;28;20096;-69
2022/10/20 22:42:43;;;;;;;16.02;14.52;;;;;;;14.34;99.50;99872.56;10434457;28;20052;-67
2022/10/20 22:47:44;;;;;;;16.08;14.52;;;;;;;14.37;99.44;99871.44;10435574;28;20048;-71
2022/10/20 22:52:45;;;;;;;16.25;14.68;;;;;;;14.36;99.43;99854.50;10440051;28;20118;-69
2022/10/20 22:57:48;;;;;;;15.60;13.68;;;;;;;14.40;99.00;99869.25;10440328;28;20045;-68
2022/10/20 23:02:49;;;;;;;16.05;14.52;;;;;;;14.40;99.46;99866.59;10434404;28;20055;-67
2022/10/20 23:07:50;;;;;;;16.05;14.50;;;;;;;14.43;99.03;99855.56;10435680;28;21176;-68
2022/10/20 23:12:52;;;;;;;14.60;13.10;;;;;;;14.43;98.79;99866.28;10418201;28;20053;-68